Flight Track Log - Related Links

Times and Time Zones

All times are in EDT time to prevent confusion due to time zone crossing. See the OPT452 flight status page for this flight to view local times or setup timezone preferences in your user account.

Time Position Orientation Groundspeed Altitude Reporting Facility
EDT Latitude Longitude Course Direction KTS MPH feet Rate Location/Type
Thu 04:59:26 PM 32.5667 -85.4167 53° Northeast 206 237 2,400  Level Atlanta TRACON
Thu 05:01:05 PM 32.6228 -85.3286 53° Northeast 247 284 6,300 2,604 Climbing Atlanta Center
Thu 05:02:05 PM 32.6878 -85.3000 20° North 242 278 9,300 2,950 Climbing Atlanta Center
Thu 05:03:05 PM 32.7406 -85.2389 44° Northeast 247 284 12,200 2,700 Climbing Atlanta Center
Thu 05:04:05 PM 32.7933 -85.1706 47° Northeast 260 299 14,700 2,300 Climbing Atlanta Center
Thu 05:05:05 PM 32.8483 -85.1044 45° Northeast 272 313 16,800 1,850 Climbing Atlanta Center
Thu 05:06:05 PM 32.9053 -85.0286 48° Northeast 297 342 18,400 1,650 Climbing Atlanta Center
Thu 05:07:05 PM 32.9953 -84.9925 19° North 324 373 20,100 1,650 Climbing Atlanta Center
Thu 05:08:05 PM 33.0875 -84.9586 17° North 329 379 21,700 1,650 Climbing Atlanta Center
Thu 05:09:05 PM 33.1836 -84.9250 16° North 349 402 23,400 1,650 Climbing Atlanta Center
Thu 05:10:05 PM 33.2778 -84.8911 17° North 349 402 25,000 1,600 Climbing Atlanta Center
Thu 05:11:05 PM 33.3825 -84.8522 17° North 357 411 26,600 1,550 Climbing Atlanta Center
Thu 05:12:05 PM 33.4744 -84.8183 17° North 352 405 28,100 1,250 Climbing Atlanta Center
Thu 05:13:05 PM 33.5728 -84.7842 16° North 347 399 29,100 1,050 Climbing Atlanta Center
Thu 05:14:05 PM 33.6775 -84.7428 18° North 367 422 30,200 1,050 Climbing Atlanta Center
Thu 05:15:05 PM 33.7800 -84.7036 18° North 372 428 31,200 1,000 Climbing Atlanta Center
Thu 05:16:05 PM 33.8867 -84.6644 17° North 384 442 32,200 1,000 Climbing Atlanta Center
Thu 05:17:05 PM 33.9911 -84.6250 17° North 384 442 33,200 950 Climbing Atlanta Center
Thu 05:18:05 PM 34.0956 -84.5906 15° North 384 442 34,100 800 Climbing Atlanta Center
Thu 05:19:05 PM 34.1939 -84.5536 17° North 392 451 34,800 700 Climbing Atlanta Center
Thu 05:20:05 PM 34.3006 -84.5114 18° North 392 451 35,500 750 Climbing Atlanta Center
Thu 05:21:05 PM 34.4156 -84.4669 18° North 392 451 36,300 750 Climbing Atlanta Center
Thu 05:22:05 PM 34.5200 -84.4269 18° North 397 457 37,000 750 Climbing Atlanta Center
Thu 05:23:05 PM 34.6286 -84.3872 17° North 397 457 37,800 750 Climbing Atlanta Center
Thu 05:24:05 PM 34.7331 -84.3472 17° North 403 464 38,500 700 Climbing Atlanta Center
Thu 05:25:05 PM 34.8394 -84.3069 17° North 398 458 39,200 700 Climbing Atlanta Center
Thu 05:26:05 PM 34.9419 -84.2694 17° North 398 458 39,900 750 Climbing Atlanta Center
Thu 05:27:05 PM 35.0483 -84.2264 18° North 392 451 40,700 550 Climbing Atlanta Center
Thu 05:28:05 PM 35.1528 -84.1861 17° North 392 451 41,000 150 Climbing Atlanta Center
Thu 05:29:05 PM 35.2592 -84.1456 17° North 392 451 41,000  Level Atlanta Center
Thu 05:30:05 PM 35.3678 -84.1025 18° North 398 458 41,000  Level Atlanta Center
Thu 05:31:05 PM 35.4806 -84.0592 17° North 404 465 41,000  Level Atlanta Center
Thu 05:32:05 PM 35.5931 -84.0158 17° North 415 478 41,000  Level Atlanta Center
Thu 05:33:05 PM 35.7078 -83.9722 17° North 420 483 41,000  Level Atlanta Center
Thu 05:34:05 PM 35.8225 -83.9286 17° North 420 483 41,000  Level Atlanta Center
Thu 05:35:05 PM 35.9350 -83.8772 20° North 420 483 41,000  Level Atlanta Center
Thu 05:36:05 PM 36.0433 -83.8075 27° Northeast 425 489 41,000  Level Atlanta Center
Thu 05:37:05 PM 36.1517 -83.7406 27° Northeast 430 495 41,000  Level Atlanta Center
Thu 05:38:05 PM 36.2475 -83.6783 28° Northeast 430 495 41,000  Level Atlanta Center
Thu 05:39:05 PM 36.3517 -83.6133 27° Northeast 424 488 41,000  Level Atlanta Center
Thu 05:39:47 PM 36.4394 -83.5544 28° Northeast 424 488 41,000  Level Indianapolis Center
Thu 05:40:49 PM 36.5422 -83.4914 26° Northeast 424 488 41,000  Level Indianapolis Center
Thu 05:41:51 PM 36.6436 -83.4200 29° Northeast 418 481 41,000  Level Indianapolis Center
Thu 05:42:52 PM 36.7450 -83.3469 30° Northeast 419 482 41,000  Level Indianapolis Center
Thu 05:43:54 PM 36.8458 -83.2725 31° Northeast 418 481 41,000  Level Indianapolis Center
Thu 05:44:56 PM 36.9475 -83.1978 30° Northeast 418 481 41,000  Level Indianapolis Center
Thu 05:45:57 PM 37.0503 -83.1242 30° Northeast 418 481 41,000  Level Indianapolis Center
Thu 05:46:59 PM 37.1514 -83.0478 31° Northeast 417 480 41,000  Level Indianapolis Center
Thu 05:48:01 PM 37.2525 -82.9733 30° Northeast 416 479 41,000 -195 Level Indianapolis Center
Thu 05:49:02 PM 37.3692 -82.8856 31° Northeast 415 478 40,600 -780 Descending Indianapolis Center
Thu 05:50:04 PM 37.4719 -82.8097 30° Northeast 424 488 39,400 -1,113 Descending Indianapolis Center
Thu 05:51:06 PM 37.5764 -82.7317 31° Northeast 434 499 38,300 -1,073 Descending Indianapolis Center
Thu 05:52:07 PM 37.6794 -82.6533 31° Northeast 432 497 37,200 -634 Descending Indianapolis Center
Thu 05:53:09 PM 37.7822 -82.5742 31° Northeast 431 496 37,000 -97 Descending Indianapolis Center
Thu 05:54:11 PM 37.8767 -82.5033 31° Northeast 400 460 37,000 -341 Level Indianapolis Center
Thu 05:55:12 PM 37.9747 -82.4272 31° Northeast 409 471 36,300 -634 Descending Indianapolis Center
Thu 05:56:14 PM 38.0981 -82.3342 31° Northeast 438 504 35,700 -823 Descending Indianapolis Center
Thu 05:57:16 PM 38.1947 -82.2597 31° Northeast 451 519 34,600 -1,122 Descending Indianapolis Center
Thu 05:58:17 PM 38.3011 -82.1783 31° Northeast 445 512 33,400 -1,171 Descending Indianapolis Center
Thu 05:59:19 PM 38.4050 -82.0989 31° Northeast 436 502 32,200 -1,210 Descending Indianapolis Center
Thu 06:00:21 PM 38.5089 -82.0172 32° Northeast 437 503 30,900 -1,512 Descending Indianapolis Center
Thu 06:01:22 PM 38.6425 -81.9142 31° Northeast 464 534 29,100 -1,756 Descending Indianapolis Center
Thu 06:02:24 PM 38.7586 -81.8256 31° Northeast 478 550 27,300 -1,016 Descending Indianapolis Center
Thu 06:03:26 PM 38.8725 -81.7356 32° Northeast 471 542 27,000 -145 Descending Indianapolis Center
Thu 06:04:28 PM 38.9869 -81.6453 32° Northeast 474 545 27,000 -341 Level Indianapolis Center
Thu 06:05:29 PM 39.1019 -81.5550 31° Northeast 479 551 26,300 -1,171 Descending Indianapolis Center
Thu 06:06:31 PM 39.2172 -81.4631 32° Northeast 485 558 24,600 -1,597 Descending Indianapolis Center
Thu 06:07:33 PM 39.3319 -81.3708 32° Northeast 486 559 23,000 -1,610 Descending Indianapolis Center
Thu 06:08:34 PM 39.4414 -81.2833 32° Northeast 470 541 21,300 -1,062 Descending Indianapolis Center
Thu 06:09:26 PM 39.5358 -81.2075 32° Northeast 468 539 21,000 -536 Descending Cleveland Center
Thu 06:10:26 PM 39.6428 -81.1194 32° Northeast 463 533 20,300 -1,200 Descending Cleveland Center
Thu 06:11:26 PM 39.7431 -81.0286 35° Northeast 451 519 18,600 -1,750 Descending Cleveland Center
Thu 06:12:26 PM 39.8394 -80.9428 34° Northeast 431 496 16,800 -1,950 Descending Cleveland Center
Thu 06:13:26 PM 39.9356 -80.8539 35° Northeast 426 490 14,700 -2,450 Descending Cleveland Center
Thu 06:14:26 PM 40.0233 -80.7592 40° Northeast 421 484 11,900 -2,250 Descending Cleveland Center
Thu 06:15:26 PM 40.0858 -80.6508 53° Northeast 392 451 10,200 -1,600 Descending Cleveland Center
Thu 06:16:26 PM 40.1442 -80.5558 51° Northeast 355 409 8,700 -1,650 Descending Cleveland Center
Thu 06:17:26 PM 40.1964 -80.4717 51° Northeast 321 369 6,900 -1,350 Descending Cleveland Center
Thu 06:18:26 PM 40.2483 -80.3953 48° Northeast 296 341 6,000 -450 Descending Cleveland Center
Thu 06:19:26 PM 40.3044 -80.3028 51° Northeast 287 330 6,000 -550 Level Cleveland Center
Thu 06:20:26 PM 40.3564 -80.2233 49° Northeast 287 330 4,900 -1,350 Descending Cleveland Center
Thu 06:21:26 PM 40.4103 -80.1442 48° Northeast 287 330 3,300 -1,050 Descending Cleveland Center
Thu 06:22:26 PM 40.4644 -80.1247 15° North 253 291 2,800 -500 Descending Cleveland Center

Login

Don't have an account? Register now (free) for customized features, flight alerts, and more!